sensor_id;sensor_type;location;lat;lon;timestamp;P1;durP1;ratioP1;P2;durP2;ratioP2
4096;SDS011;2062;50.694;7.246;2023-02-18T00:00:03;4.50;;;1.67;;
4096;SDS011;2062;50.694;7.246;2023-02-18T00:02:31;4.70;;;1.40;;
4096;SDS011;2062;50.694;7.246;2023-02-18T00:04:58;4.40;;;1.20;;
4096;SDS011;2062;50.694;7.246;2023-02-18T00:07:25;4.70;;;1.20;;
4096;SDS011;2062;50.694;7.246;2023-02-18T00:09:53;5.13;;;1.40;;
4096;SDS011;2062;50.694;7.246;2023-02-18T00:12:20;3.97;;;1.30;;
4096;SDS011;2062;50.694;7.246;2023-02-18T00:14:46;3.92;;;1.27;;
4096;SDS011;2062;50.694;7.246;2023-02-18T00:17:13;4.15;;;1.23;;
4096;SDS011;2062;50.694;7.246;2023-02-18T00:19:40;3.97;;;1.00;;
4096;SDS011;2062;50.694;7.246;2023-02-18T00:22:07;4.45;;;1.20;;
4096;SDS011;2062;50.694;7.246;2023-02-18T00:24:33;3.90;;;1.08;;
4096;SDS011;2062;50.694;7.246;2023-02-18T00:27:02;3.38;;;0.90;;
4096;SDS011;2062;50.694;7.246;2023-02-18T00:29:28;4.65;;;1.23;;
4096;SDS011;2062;50.694;7.246;2023-02-18T00:31:55;4.17;;;1.10;;
4096;SDS011;2062;50.694;7.246;2023-02-18T00:34:22;4.20;;;0.85;;
4096;SDS011;2062;50.694;7.246;2023-02-18T00:36:49;3.67;;;1.05;;
4096;SDS011;2062;50.694;7.246;2023-02-18T00:39:16;3.47;;;1.00;;
4096;SDS011;2062;50.694;7.246;2023-02-18T00:41:43;4.55;;;1.02;;
4096;SDS011;2062;50.694;7.246;2023-02-18T00:44:11;4.30;;;0.90;;
4096;SDS011;2062;50.694;7.246;2023-02-18T00:46:38;4.95;;;0.90;;
4096;SDS011;2062;50.694;7.246;2023-02-18T00:49:05;3.55;;;0.93;;
4096;SDS011;2062;50.694;7.246;2023-02-18T00:51:32;4.15;;;0.90;;
4096;SDS011;2062;50.694;7.246;2023-02-18T00:53:59;3.97;;;1.05;;
4096;SDS011;2062;50.694;7.246;2023-02-18T00:56:26;4.23;;;1.20;;
4096;SDS011;2062;50.694;7.246;2023-02-18T00:58:53;3.30;;;0.80;;
4096;SDS011;2062;50.694;7.246;2023-02-18T01:01:21;3.58;;;1.00;;
4096;SDS011;2062;50.694;7.246;2023-02-18T01:03:48;3.50;;;0.90;;
4096;SDS011;2062;50.694;7.246;2023-02-18T01:06:15;3.45;;;0.80;;
4096;SDS011;2062;50.694;7.246;2023-02-18T01:08:42;3.67;;;0.83;;
4096;SDS011;2062;50.694;7.246;2023-02-18T01:11:09;4.05;;;1.10;;
4096;SDS011;2062;50.694;7.246;2023-02-18T01:13:37;3.58;;;0.90;;
4096;SDS011;2062;50.694;7.246;2023-02-18T01:16:05;3.15;;;0.70;;
4096;SDS011;2062;50.694;7.246;2023-02-18T01:18:33;3.75;;;0.90;;
4096;SDS011;2062;50.694;7.246;2023-02-18T01:21:00;4.53;;;0.70;;
4096;SDS011;2062;50.694;7.246;2023-02-18T01:23:29;3.00;;;0.60;;
4096;SDS011;2062;50.694;7.246;2023-02-18T01:25:56;4.18;;;0.80;;
4096;SDS011;2062;50.694;7.246;2023-02-18T01:28:23;2.70;;;0.50;;
4096;SDS011;2062;50.694;7.246;2023-02-18T01:30:50;3.38;;;0.80;;
4096;SDS011;2062;50.694;7.246;2023-02-18T01:33:17;2.97;;;0.60;;
4096;SDS011;2062;50.694;7.246;2023-02-18T01:35:45;2.70;;;0.60;;
4096;SDS011;2062;50.694;7.246;2023-02-18T01:38:12;2.92;;;0.70;;
4096;SDS011;2062;50.694;7.246;2023-02-18T01:40:43;3.08;;;0.70;;
4096;SDS011;2062;50.694;7.246;2023-02-18T01:43:15;5.15;;;0.70;;
4096;SDS011;2062;50.694;7.246;2023-02-18T01:45:56;2.50;;;0.50;;
4096;SDS011;2062;50.694;7.246;2023-02-18T01:48:26;3.55;;;0.75;;
4096;SDS011;2062;50.694;7.246;2023-02-18T01:50:58;3.70;;;0.60;;
4096;SDS011;2062;50.694;7.246;2023-02-18T01:53:30;2.60;;;0.60;;
4096;SDS011;2062;50.694;7.246;2023-02-18T01:56:00;3.00;;;0.80;;
4096;SDS011;2062;50.694;7.246;2023-02-18T01:58:30;2.87;;;0.60;;
4096;SDS011;2062;50.694;7.246;2023-02-18T02:00:57;3.50;;;0.85;;
4096;SDS011;2062;50.694;7.246;2023-02-18T02:03:24;2.88;;;0.65;;
4096;SDS011;2062;50.694;7.246;2023-02-18T02:05:51;3.25;;;0.70;;
4096;SDS011;2062;50.694;7.246;2023-02-18T02:08:19;3.10;;;0.80;;
4096;SDS011;2062;50.694;7.246;2023-02-18T02:13:34;4.55;;;0.80;;
4096;SDS011;2062;50.694;7.246;2023-02-18T02:16:11;4.47;;;0.88;;
4096;SDS011;2062;50.694;7.246;2023-02-18T02:18:50;2.90;;;0.60;;
4096;SDS011;2062;50.694;7.246;2023-02-18T02:27:28;4.70;;;0.70;;
4096;SDS011;2062;50.694;7.246;2023-02-18T02:36:14;3.72;;;0.90;;
4096;SDS011;2062;50.694;7.246;2023-02-18T02:38:48;3.17;;;0.70;;
4096;SDS011;2062;50.694;7.246;2023-02-18T02:41:29;2.83;;;0.80;;
4096;SDS011;2062;50.694;7.246;2023-02-18T02:44:18;4.10;;;0.80;;
4096;SDS011;2062;50.694;7.246;2023-02-18T02:46:47;3.55;;;0.80;;
4096;SDS011;2062;50.694;7.246;2023-02-18T02:49:19;3.10;;;0.73;;
4096;SDS011;2062;50.694;7.246;2023-02-18T02:51:59;4.00;;;0.97;;
4096;SDS011;2062;50.694;7.246;2023-02-18T02:54:30;3.20;;;0.70;;
4096;SDS011;2062;50.694;7.246;2023-02-18T02:57:07;3.10;;;0.80;;
4096;SDS011;2062;50.694;7.246;2023-02-18T02:59:55;2.70;;;0.65;;
4096;SDS011;2062;50.694;7.246;2023-02-18T03:02:28;4.90;;;0.70;;
4096;SDS011;2062;50.694;7.246;2023-02-18T03:05:07;2.60;;;0.50;;
4096;SDS011;2062;50.694;7.246;2023-02-18T03:07:55;4.75;;;0.70;;
4096;SDS011;2062;50.694;7.246;2023-02-18T03:10:44;2.75;;;0.52;;
4096;SDS011;2062;50.694;7.246;2023-02-18T03:13:20;2.25;;;0.43;;
4096;SDS011;2062;50.694;7.246;2023-02-18T03:15:54;2.38;;;0.40;;
4096;SDS011;2062;50.694;7.246;2023-02-18T03:18:25;2.77;;;0.50;;
4096;SDS011;2062;50.694;7.246;2023-02-18T03:21:00;2.63;;;0.40;;
4096;SDS011;2062;50.694;7.246;2023-02-18T03:23:36;1.65;;;0.40;;
4096;SDS011;2062;50.694;7.246;2023-02-18T03:26:06;2.15;;;0.40;;
4096;SDS011;2062;50.694;7.246;2023-02-18T03:28:36;3.55;;;0.40;;
4096;SDS011;2062;50.694;7.246;2023-02-18T03:31:04;3.40;;;0.30;;
4096;SDS011;2062;50.694;7.246;2023-02-18T03:33:36;1.50;;;0.30;;
4096;SDS011;2062;50.694;7.246;2023-02-18T03:36:07;1.73;;;0.30;;
4096;SDS011;2062;50.694;7.246;2023-02-18T03:38:37;1.98;;;0.40;;
4096;SDS011;2062;50.694;7.246;2023-02-18T03:41:07;1.88;;;0.30;;
4096;SDS011;2062;50.694;7.246;2023-02-18T03:43:34;2.30;;;0.40;;
4096;SDS011;2062;50.694;7.246;2023-02-18T03:46:01;1.55;;;0.30;;
4096;SDS011;2062;50.694;7.246;2023-02-18T03:48:29;2.45;;;0.40;;
4096;SDS011;2062;50.694;7.246;2023-02-18T03:50:55;1.70;;;0.30;;
4096;SDS011;2062;50.694;7.246;2023-02-18T03:53:22;1.42;;;0.30;;
4096;SDS011;2062;50.694;7.246;2023-02-18T03:55:50;2.93;;;0.40;;
4096;SDS011;2062;50.694;7.246;2023-02-18T03:58:17;1.30;;;0.20;;
4096;SDS011;2062;50.694;7.246;2023-02-18T04:00:44;1.35;;;0.20;;
4096;SDS011;2062;50.694;7.246;2023-02-18T04:03:11;1.67;;;0.30;;
4096;SDS011;2062;50.694;7.246;2023-02-18T04:05:37;2.03;;;0.30;;
4096;SDS011;2062;50.694;7.246;2023-02-18T04:08:04;1.70;;;0.30;;
4096;SDS011;2062;50.694;7.246;2023-02-18T04:10:31;1.95;;;0.30;;
4096;SDS011;2062;50.694;7.246;2023-02-18T04:12:59;1.77;;;0.38;;
4096;SDS011;2062;50.694;7.246;2023-02-18T04:15:26;1.77;;;0.38;;
4096;SDS011;2062;50.694;7.246;2023-02-18T04:17:53;1.48;;;0.30;;
4096;SDS011;2062;50.694;7.246;2023-02-18T04:20:19;1.17;;;0.20;;
4096;SDS011;2062;50.694;7.246;2023-02-18T04:22:47;1.15;;;0.22;;
4096;SDS011;2062;50.694;7.246;2023-02-18T04:25:14;1.48;;;0.30;;
4096;SDS011;2062;50.694;7.246;2023-02-18T04:27:41;1.20;;;0.20;;
4096;SDS011;2062;50.694;7.246;2023-02-18T04:30:09;0.95;;;0.20;;
4096;SDS011;2062;50.694;7.246;2023-02-18T04:32:37;2.10;;;0.40;;
4096;SDS011;2062;50.694;7.246;2023-02-18T04:35:04;0.93;;;0.20;;
4096;SDS011;2062;50.694;7.246;2023-02-18T04:37:31;1.80;;;0.30;;
4096;SDS011;2062;50.694;7.246;2023-02-18T04:39:58;1.40;;;0.25;;
4096;SDS011;2062;50.694;7.246;2023-02-18T04:42:24;1.35;;;0.20;;
4096;SDS011;2062;50.694;7.246;2023-02-18T04:44:51;1.30;;;0.20;;
4096;SDS011;2062;50.694;7.246;2023-02-18T04:47:19;1.42;;;0.30;;
4096;SDS011;2062;50.694;7.246;2023-02-18T04:49:46;1.38;;;0.30;;
4096;SDS011;2062;50.694;7.246;2023-02-18T04:52:13;1.80;;;0.30;;
4096;SDS011;2062;50.694;7.246;2023-02-18T04:54:40;1.45;;;0.30;;
4096;SDS011;2062;50.694;7.246;2023-02-18T04:57:06;1.30;;;0.30;;
4096;SDS011;2062;50.694;7.246;2023-02-18T04:59:33;1.20;;;0.20;;
4096;SDS011;2062;50.694;7.246;2023-02-18T05:02:00;1.42;;;0.30;;
4096;SDS011;2062;50.694;7.246;2023-02-18T05:04:28;1.40;;;0.20;;
4096;SDS011;2062;50.694;7.246;2023-02-18T05:06:55;1.20;;;0.20;;
4096;SDS011;2062;50.694;7.246;2023-02-18T05:09:22;0.97;;;0.20;;
4096;SDS011;2062;50.694;7.246;2023-02-18T05:11:48;0.68;;;0.17;;
4096;SDS011;2062;50.694;7.246;2023-02-18T05:14:15;1.00;;;0.20;;
4096;SDS011;2062;50.694;7.246;2023-02-18T05:16:42;1.00;;;0.13;;
4096;SDS011;2062;50.694;7.246;2023-02-18T05:19:09;1.15;;;0.20;;
4096;SDS011;2062;50.694;7.246;2023-02-18T05:21:43;0.87;;;0.20;;
4096;SDS011;2062;50.694;7.246;2023-02-18T05:24:10;1.10;;;0.20;;
4096;SDS011;2062;50.694;7.246;2023-02-18T05:26:37;0.95;;;0.20;;
4096;SDS011;2062;50.694;7.246;2023-02-18T05:29:04;0.88;;;0.20;;
4096;SDS011;2062;50.694;7.246;2023-02-18T05:31:31;1.20;;;0.20;;
4096;SDS011;2062;50.694;7.246;2023-02-18T05:33:57;0.70;;;0.20;;
4096;SDS011;2062;50.694;7.246;2023-02-18T05:36:24;0.80;;;0.20;;
4096;SDS011;2062;50.694;7.246;2023-02-18T05:38:52;1.10;;;0.20;;
4096;SDS011;2062;50.694;7.246;2023-02-18T05:41:19;1.02;;;0.20;;
4096;SDS011;2062;50.694;7.246;2023-02-18T05:43:46;0.93;;;0.20;;
4096;SDS011;2062;50.694;7.246;2023-02-18T05:46:30;1.10;;;0.20;;
4096;SDS011;2062;50.694;7.246;2023-02-18T05:48:57;0.85;;;0.20;;
4096;SDS011;2062;50.694;7.246;2023-02-18T05:51:24;1.10;;;0.30;;
4096;SDS011;2062;50.694;7.246;2023-02-18T05:53:50;0.93;;;0.20;;
4096;SDS011;2062;50.694;7.246;2023-02-18T05:56:19;1.38;;;0.20;;
4096;SDS011;2062;50.694;7.246;2023-02-18T05:58:46;0.77;;;0.20;;
4096;SDS011;2062;50.694;7.246;2023-02-18T06:01:13;1.63;;;0.17;;
4096;SDS011;2062;50.694;7.246;2023-02-18T06:03:40;1.05;;;0.20;;
4096;SDS011;2062;50.694;7.246;2023-02-18T06:06:06;0.60;;;0.10;;
4096;SDS011;2062;50.694;7.246;2023-02-18T06:08:34;0.98;;;0.20;;
4096;SDS011;2062;50.694;7.246;2023-02-18T06:11:02;0.70;;;0.13;;
4096;SDS011;2062;50.694;7.246;2023-02-18T06:13:29;0.90;;;0.20;;
4096;SDS011;2062;50.694;7.246;2023-02-18T06:15:56;1.00;;;0.20;;
4096;SDS011;2062;50.694;7.246;2023-02-18T06:18:23;1.33;;;0.28;;
4096;SDS011;2062;50.694;7.246;2023-02-18T06:20:49;1.05;;;0.30;;
4096;SDS011;2062;50.694;7.246;2023-02-18T06:23:16;0.83;;;0.20;;
4096;SDS011;2062;50.694;7.246;2023-02-18T06:25:43;0.98;;;0.20;;
4096;SDS011;2062;50.694;7.246;2023-02-18T06:28:11;1.27;;;0.30;;
4096;SDS011;2062;50.694;7.246;2023-02-18T06:30:38;1.05;;;0.20;;
4096;SDS011;2062;50.694;7.246;2023-02-18T06:33:04;1.50;;;0.20;;
4096;SDS011;2062;50.694;7.246;2023-02-18T06:35:31;0.93;;;0.20;;
4096;SDS011;2062;50.694;7.246;2023-02-18T06:37:59;0.68;;;0.15;;
4096;SDS011;2062;50.694;7.246;2023-02-18T06:40:25;1.25;;;0.20;;
4096;SDS011;2062;50.694;7.246;2023-02-18T06:42:52;0.80;;;0.20;;
4096;SDS011;2062;50.694;7.246;2023-02-18T06:45:20;1.40;;;0.30;;
4096;SDS011;2062;50.694;7.246;2023-02-18T06:47:47;1.30;;;0.20;;
4096;SDS011;2062;50.694;7.246;2023-02-18T06:50:14;1.60;;;0.30;;
4096;SDS011;2062;50.694;7.246;2023-02-18T06:52:43;1.40;;;0.20;;
4096;SDS011;2062;50.694;7.246;2023-02-18T06:55:10;1.13;;;0.20;;
4096;SDS011;2062;50.694;7.246;2023-02-18T06:57:37;1.15;;;0.30;;
4096;SDS011;2062;50.694;7.246;2023-02-18T07:00:04;1.50;;;0.20;;
4096;SDS011;2062;50.694;7.246;2023-02-18T07:02:33;2.08;;;0.20;;
4096;SDS011;2062;50.694;7.246;2023-02-18T07:05:00;1.63;;;0.30;;
4096;SDS011;2062;50.694;7.246;2023-02-18T07:07:27;1.17;;;0.20;;
4096;SDS011;2062;50.694;7.246;2023-02-18T07:09:54;1.25;;;0.20;;
4096;SDS011;2062;50.694;7.246;2023-02-18T07:12:20;1.60;;;0.30;;
4096;SDS011;2062;50.694;7.246;2023-02-18T07:14:47;0.93;;;0.20;;
4096;SDS011;2062;50.694;7.246;2023-02-18T07:17:14;1.70;;;0.30;;
4096;SDS011;2062;50.694;7.246;2023-02-18T07:19:42;2.17;;;0.30;;
4096;SDS011;2062;50.694;7.246;2023-02-18T07:22:09;1.77;;;0.30;;
4096;SDS011;2062;50.694;7.246;2023-02-18T07:24:36;1.17;;;0.20;;
4096;SDS011;2062;50.694;7.246;2023-02-18T07:27:02;1.98;;;0.30;;
4096;SDS011;2062;50.694;7.246;2023-02-18T07:29:29;2.13;;;0.28;;
4096;SDS011;2062;50.694;7.246;2023-02-18T07:31:56;1.20;;;0.20;;
4096;SDS011;2062;50.694;7.246;2023-02-18T07:34:23;1.58;;;0.30;;
4096;SDS011;2062;50.694;7.246;2023-02-18T07:36:51;1.10;;;0.20;;
4096;SDS011;2062;50.694;7.246;2023-02-18T07:39:17;1.02;;;0.20;;
4096;SDS011;2062;50.694;7.246;2023-02-18T07:41:44;0.77;;;0.20;;
4096;SDS011;2062;50.694;7.246;2023-02-18T07:44:11;1.58;;;0.30;;
4096;SDS011;2062;50.694;7.246;2023-02-18T07:46:38;0.73;;;0.20;;
4096;SDS011;2062;50.694;7.246;2023-02-18T07:49:06;1.10;;;0.20;;
4096;SDS011;2062;50.694;7.246;2023-02-18T07:51:33;1.00;;;0.20;;
4096;SDS011;2062;50.694;7.246;2023-02-18T07:54:01;1.60;;;0.30;;
4096;SDS011;2062;50.694;7.246;2023-02-18T07:56:28;0.95;;;0.13;;
4096;SDS011;2062;50.694;7.246;2023-02-18T07:58:54;1.15;;;0.20;;
4096;SDS011;2062;50.694;7.246;2023-02-18T08:01:21;1.10;;;0.20;;
4096;SDS011;2062;50.694;7.246;2023-02-18T08:03:48;1.40;;;0.30;;
4096;SDS011;2062;50.694;7.246;2023-02-18T08:06:19;1.20;;;0.20;;
4096;SDS011;2062;50.694;7.246;2023-02-18T08:08:47;1.02;;;0.20;;
4096;SDS011;2062;50.694;7.246;2023-02-18T08:11:15;1.60;;;0.30;;
4096;SDS011;2062;50.694;7.246;2023-02-18T08:13:42;1.53;;;0.20;;
4096;SDS011;2062;50.694;7.246;2023-02-18T08:16:09;0.90;;;0.20;;
4096;SDS011;2062;50.694;7.246;2023-02-18T08:18:36;1.13;;;0.20;;
4096;SDS011;2062;50.694;7.246;2023-02-18T08:21:02;1.17;;;0.20;;
4096;SDS011;2062;50.694;7.246;2023-02-18T08:23:29;1.65;;;0.30;;
4096;SDS011;2062;50.694;7.246;2023-02-18T08:25:56;1.10;;;0.20;;
4096;SDS011;2062;50.694;7.246;2023-02-18T08:28:24;1.15;;;0.20;;
4096;SDS011;2062;50.694;7.246;2023-02-18T08:30:53;1.40;;;0.20;;
4096;SDS011;2062;50.694;7.246;2023-02-18T08:33:20;0.95;;;0.20;;
4096;SDS011;2062;50.694;7.246;2023-02-18T08:35:48;1.48;;;0.30;;
4096;SDS011;2062;50.694;7.246;2023-02-18T08:38:16;1.03;;;0.20;;
4096;SDS011;2062;50.694;7.246;2023-02-18T08:40:43;1.10;;;0.20;;
4096;SDS011;2062;50.694;7.246;2023-02-18T08:43:10;1.80;;;0.30;;
4096;SDS011;2062;50.694;7.246;2023-02-18T08:45:38;1.83;;;0.30;;
4096;SDS011;2062;50.694;7.246;2023-02-18T08:48:06;1.23;;;0.30;;
4096;SDS011;2062;50.694;7.246;2023-02-18T08:50:34;1.17;;;0.20;;
4096;SDS011;2062;50.694;7.246;2023-02-18T08:53:01;1.10;;;0.28;;
4096;SDS011;2062;50.694;7.246;2023-02-18T08:55:29;1.52;;;0.30;;
4096;SDS011;2062;50.694;7.246;2023-02-18T08:57:56;1.52;;;0.30;;
4096;SDS011;2062;50.694;7.246;2023-02-18T09:00:23;1.52;;;0.30;;
4096;SDS011;2062;50.694;7.246;2023-02-18T09:02:51;2.00;;;0.37;;
4096;SDS011;2062;50.694;7.246;2023-02-18T09:05:18;1.83;;;0.40;;
4096;SDS011;2062;50.694;7.246;2023-02-18T09:07:45;3.15;;;0.30;;
4096;SDS011;2062;50.694;7.246;2023-02-18T09:10:12;3.28;;;0.47;;
4096;SDS011;2062;50.694;7.246;2023-02-18T09:12:38;1.75;;;0.30;;
4096;SDS011;2062;50.694;7.246;2023-02-18T09:15:05;2.70;;;0.30;;
4096;SDS011;2062;50.694;7.246;2023-02-18T09:17:33;1.65;;;0.30;;
4096;SDS011;2062;50.694;7.246;2023-02-18T09:20:01;2.15;;;0.40;;
4096;SDS011;2062;50.694;7.246;2023-02-18T09:22:28;2.45;;;0.50;;
4096;SDS011;2062;50.694;7.246;2023-02-18T09:24:56;2.40;;;0.47;;
4096;SDS011;2062;50.694;7.246;2023-02-18T09:27:24;2.57;;;0.50;;
4096;SDS011;2062;50.694;7.246;2023-02-18T09:29:51;2.13;;;0.45;;
4096;SDS011;2062;50.694;7.246;2023-02-18T09:32:17;3.05;;;0.43;;
4096;SDS011;2062;50.694;7.246;2023-02-18T09:34:44;2.25;;;0.50;;
4096;SDS011;2062;50.694;7.246;2023-02-18T09:37:12;2.45;;;0.50;;
4096;SDS011;2062;50.694;7.246;2023-02-18T09:39:39;4.07;;;0.50;;
4096;SDS011;2062;50.694;7.246;2023-02-18T09:42:10;3.45;;;0.70;;
4096;SDS011;2062;50.694;7.246;2023-02-18T09:44:40;3.95;;;0.55;;
4096;SDS011;2062;50.694;7.246;2023-02-18T09:47:11;3.60;;;0.70;;
4096;SDS011;2062;50.694;7.246;2023-02-18T09:49:42;4.88;;;0.70;;
4096;SDS011;2062;50.694;7.246;2023-02-18T09:52:15;3.13;;;0.50;;
4096;SDS011;2062;50.694;7.246;2023-02-18T09:54:45;3.53;;;0.60;;
4096;SDS011;2062;50.694;7.246;2023-02-18T09:57:20;4.85;;;0.90;;
4096;SDS011;2062;50.694;7.246;2023-02-18T09:59:54;4.05;;;0.60;;
4096;SDS011;2062;50.694;7.246;2023-02-18T10:02:24;6.07;;;0.90;;
4096;SDS011;2062;50.694;7.246;2023-02-18T10:04:57;3.77;;;0.70;;
4096;SDS011;2062;50.694;7.246;2023-02-18T10:07:26;4.45;;;0.70;;
4096;SDS011;2062;50.694;7.246;2023-02-18T10:09:56;3.25;;;0.63;;
4096;SDS011;2062;50.694;7.246;2023-02-18T10:12:28;3.75;;;0.73;;
4096;SDS011;2062;50.694;7.246;2023-02-18T10:14:57;4.55;;;0.80;;
4096;SDS011;2062;50.694;7.246;2023-02-18T10:17:26;5.30;;;0.90;;
4096;SDS011;2062;50.694;7.246;2023-02-18T10:19:55;3.70;;;0.85;;
4096;SDS011;2062;50.694;7.246;2023-02-18T10:22:25;3.97;;;0.98;;
4096;SDS011;2062;50.694;7.246;2023-02-18T10:24:53;6.03;;;0.63;;
4096;SDS011;2062;50.694;7.246;2023-02-18T10:27:23;5.22;;;1.10;;
4096;SDS011;2062;50.694;7.246;2023-02-18T10:29:53;4.23;;;0.67;;
4096;SDS011;2062;50.694;7.246;2023-02-18T10:32:22;5.20;;;0.80;;
4096;SDS011;2062;50.694;7.246;2023-02-18T10:34:51;4.25;;;0.80;;
4096;SDS011;2062;50.694;7.246;2023-02-18T10:37:28;8.10;;;1.00;;
4096;SDS011;2062;50.694;7.246;2023-02-18T10:40:08;4.82;;;0.80;;
4096;SDS011;2062;50.694;7.246;2023-02-18T10:42:41;2.77;;;0.57;;
4096;SDS011;2062;50.694;7.246;2023-02-18T10:45:21;5.55;;;0.80;;
4096;SDS011;2062;50.694;7.246;2023-02-18T10:47:59;3.72;;;0.70;;
4096;SDS011;2062;50.694;7.246;2023-02-18T10:50:37;5.47;;;0.70;;
4096;SDS011;2062;50.694;7.246;2023-02-18T10:53:15;3.72;;;0.80;;
4096;SDS011;2062;50.694;7.246;2023-02-18T10:55:59;3.93;;;0.80;;
4096;SDS011;2062;50.694;7.246;2023-02-18T10:58:29;4.72;;;0.85;;
4096;SDS011;2062;50.694;7.246;2023-02-18T11:01:02;4.50;;;0.90;;
4096;SDS011;2062;50.694;7.246;2023-02-18T11:03:39;6.53;;;1.00;;
4096;SDS011;2062;50.694;7.246;2023-02-18T11:06:20;5.55;;;0.85;;
4096;SDS011;2062;50.694;7.246;2023-02-18T11:08:51;4.23;;;0.80;;
4096;SDS011;2062;50.694;7.246;2023-02-18T11:11:21;7.05;;;1.10;;
4096;SDS011;2062;50.694;7.246;2023-02-18T11:13:51;4.80;;;0.90;;
4096;SDS011;2062;50.694;7.246;2023-02-18T11:16:20;3.47;;;0.70;;
4096;SDS011;2062;50.694;7.246;2023-02-18T11:18:48;3.47;;;0.80;;
4096;SDS011;2062;50.694;7.246;2023-02-18T11:21:19;4.77;;;0.80;;
4096;SDS011;2062;50.694;7.246;2023-02-18T11:23:52;4.18;;;0.75;;
4096;SDS011;2062;50.694;7.246;2023-02-18T11:26:21;4.45;;;0.70;;
4096;SDS011;2062;50.694;7.246;2023-02-18T11:28:55;6.20;;;0.77;;
4096;SDS011;2062;50.694;7.246;2023-02-18T11:31:26;3.97;;;0.77;;
4096;SDS011;2062;50.694;7.246;2023-02-18T11:34:03;4.90;;;0.77;;
4096;SDS011;2062;50.694;7.246;2023-02-18T11:36:32;3.42;;;0.73;;
4096;SDS011;2062;50.694;7.246;2023-02-18T11:39:02;4.63;;;0.80;;
4096;SDS011;2062;50.694;7.246;2023-02-18T11:41:33;3.47;;;0.63;;
4096;SDS011;2062;50.694;7.246;2023-02-18T11:44:02;2.97;;;0.60;;
4096;SDS011;2062;50.694;7.246;2023-02-18T11:46:32;3.97;;;0.60;;
4096;SDS011;2062;50.694;7.246;2023-02-18T11:49:09;3.10;;;0.70;;
4096;SDS011;2062;50.694;7.246;2023-02-18T11:51:44;4.80;;;0.70;;
4096;SDS011;2062;50.694;7.246;2023-02-18T11:54:22;2.65;;;0.60;;
4096;SDS011;2062;50.694;7.246;2023-02-18T11:56:55;2.97;;;0.50;;
4096;SDS011;2062;50.694;7.246;2023-02-18T11:59:23;2.90;;;0.50;;
4096;SDS011;2062;50.694;7.246;2023-02-18T12:01:50;2.85;;;0.50;;
4096;SDS011;2062;50.694;7.246;2023-02-18T12:04:20;5.35;;;0.60;;
4096;SDS011;2062;50.694;7.246;2023-02-18T12:06:55;6.13;;;0.70;;
4096;SDS011;2062;50.694;7.246;2023-02-18T12:09:34;3.92;;;0.50;;
4096;SDS011;2062;50.694;7.246;2023-02-18T12:12:05;2.00;;;0.43;;
4096;SDS011;2062;50.694;7.246;2023-02-18T12:14:38;2.75;;;0.57;;
4096;SDS011;2062;50.694;7.246;2023-02-18T12:17:10;2.38;;;0.50;;
4096;SDS011;2062;50.694;7.246;2023-02-18T12:19:59;3.25;;;0.65;;
4096;SDS011;2062;50.694;7.246;2023-02-18T12:22:44;2.90;;;0.50;;
4096;SDS011;2062;50.694;7.246;2023-02-18T12:25:23;2.83;;;0.60;;
4096;SDS011;2062;50.694;7.246;2023-02-18T12:28:02;3.50;;;0.50;;
4096;SDS011;2062;50.694;7.246;2023-02-18T12:30:51;2.97;;;0.57;;
4096;SDS011;2062;50.694;7.246;2023-02-18T12:33:38;2.15;;;0.40;;
4096;SDS011;2062;50.694;7.246;2023-02-18T12:36:16;2.80;;;0.52;;
4096;SDS011;2062;50.694;7.246;2023-02-18T12:38:54;3.10;;;0.50;;
4096;SDS011;2062;50.694;7.246;2023-02-18T12:41:53;3.65;;;0.60;;
4096;SDS011;2062;50.694;7.246;2023-02-18T12:44:33;2.15;;;0.43;;
4096;SDS011;2062;50.694;7.246;2023-02-18T12:47:16;3.20;;;0.50;;
4096;SDS011;2062;50.694;7.246;2023-02-18T12:50:01;2.08;;;0.40;;
4096;SDS011;2062;50.694;7.246;2023-02-18T12:52:40;2.40;;;0.40;;
4096;SDS011;2062;50.694;7.246;2023-02-18T12:55:38;2.08;;;0.40;;
4096;SDS011;2062;50.694;7.246;2023-02-18T12:58:17;2.05;;;0.40;;
4096;SDS011;2062;50.694;7.246;2023-02-18T13:00:59;3.03;;;0.40;;
4096;SDS011;2062;50.694;7.246;2023-02-18T13:10:06;2.10;;;0.35;;
4096;SDS011;2062;50.694;7.246;2023-02-18T13:12:47;3.33;;;0.40;;
4096;SDS011;2062;50.694;7.246;2023-02-18T13:15:22;2.47;;;0.30;;
4096;SDS011;2062;50.694;7.246;2023-02-18T13:17:53;2.35;;;0.40;;
4096;SDS011;2062;50.694;7.246;2023-02-18T13:20:28;1.70;;;0.40;;
4096;SDS011;2062;50.694;7.246;2023-02-18T13:23:01;2.00;;;0.38;;
4096;SDS011;2062;50.694;7.246;2023-02-18T13:25:30;2.50;;;0.40;;
4096;SDS011;2062;50.694;7.246;2023-02-18T13:28:02;2.90;;;0.50;;
4096;SDS011;2062;50.694;7.246;2023-02-18T13:30:40;2.15;;;0.38;;
4096;SDS011;2062;50.694;7.246;2023-02-18T13:33:13;1.53;;;0.20;;
4096;SDS011;2062;50.694;7.246;2023-02-18T13:35:45;2.10;;;0.30;;
4096;SDS011;2062;50.694;7.246;2023-02-18T13:38:33;2.55;;;0.35;;
4096;SDS011;2062;50.694;7.246;2023-02-18T13:41:15;2.28;;;0.40;;
4096;SDS011;2062;50.694;7.246;2023-02-18T13:43:42;2.85;;;0.50;;
4096;SDS011;2062;50.694;7.246;2023-02-18T13:46:11;1.77;;;0.30;;
4096;SDS011;2062;50.694;7.246;2023-02-18T13:48:42;2.30;;;0.40;;
4096;SDS011;2062;50.694;7.246;2023-02-18T13:51:11;2.25;;;0.40;;
4096;SDS011;2062;50.694;7.246;2023-02-18T13:53:41;2.15;;;0.40;;
4096;SDS011;2062;50.694;7.246;2023-02-18T13:56:10;2.88;;;0.50;;
4096;SDS011;2062;50.694;7.246;2023-02-18T13:58:47;2.70;;;0.50;;
4096;SDS011;2062;50.694;7.246;2023-02-18T14:01:20;2.38;;;0.40;;
4096;SDS011;2062;50.694;7.246;2023-02-18T14:03:59;1.83;;;0.40;;
4096;SDS011;2062;50.694;7.246;2023-02-18T14:06:27;2.35;;;0.40;;
4096;SDS011;2062;50.694;7.246;2023-02-18T14:12:14;1.93;;;0.40;;
4096;SDS011;2062;50.694;7.246;2023-02-18T14:14:49;1.88;;;0.40;;
4096;SDS011;2062;50.694;7.246;2023-02-18T14:26:22;2.03;;;0.33;;
4096;SDS011;2062;50.694;7.246;2023-02-18T14:28:54;2.05;;;0.30;;
4096;SDS011;2062;50.694;7.246;2023-02-18T14:34:29;2.67;;;0.38;;
4096;SDS011;2062;50.694;7.246;2023-02-18T14:37:22;2.40;;;0.40;;
4096;SDS011;2062;50.694;7.246;2023-02-18T14:39:59;2.27;;;0.37;;
4096;SDS011;2062;50.694;7.246;2023-02-18T14:42:39;1.95;;;0.30;;
4096;SDS011;2062;50.694;7.246;2023-02-18T14:45:16;2.50;;;0.40;;
4096;SDS011;2062;50.694;7.246;2023-02-18T14:47:56;2.50;;;0.40;;
4096;SDS011;2062;50.694;7.246;2023-02-18T14:50:37;2.47;;;0.50;;
4096;SDS011;2062;50.694;7.246;2023-02-18T14:53:10;2.10;;;0.30;;
4096;SDS011;2062;50.694;7.246;2023-02-18T14:55:43;2.47;;;0.30;;
4096;SDS011;2062;50.694;7.246;2023-02-18T14:58:23;2.30;;;0.40;;
4096;SDS011;2062;50.694;7.246;2023-02-18T15:00:54;1.90;;;0.30;;
4096;SDS011;2062;50.694;7.246;2023-02-18T15:03:21;2.45;;;0.40;;
4096;SDS011;2062;50.694;7.246;2023-02-18T15:05:50;1.73;;;0.33;;
4096;SDS011;2062;50.694;7.246;2023-02-18T15:08:18;2.10;;;0.40;;
4096;SDS011;2062;50.694;7.246;2023-02-18T15:10:46;2.22;;;0.40;;
4096;SDS011;2062;50.694;7.246;2023-02-18T15:13:18;2.67;;;0.50;;
4096;SDS011;2062;50.694;7.246;2023-02-18T15:15:47;2.60;;;0.50;;
4096;SDS011;2062;50.694;7.246;2023-02-18T15:18:19;1.67;;;0.27;;
4096;SDS011;2062;50.694;7.246;2023-02-18T15:20:51;1.58;;;0.30;;
4096;SDS011;2062;50.694;7.246;2023-02-18T15:23:19;2.08;;;0.47;;
4096;SDS011;2062;50.694;7.246;2023-02-18T15:25:46;2.10;;;0.40;;
4096;SDS011;2062;50.694;7.246;2023-02-18T15:28:22;1.98;;;0.40;;
4096;SDS011;2062;50.694;7.246;2023-02-18T15:30:51;2.17;;;0.40;;
4096;SDS011;2062;50.694;7.246;2023-02-18T15:33:19;2.17;;;0.43;;
4096;SDS011;2062;50.694;7.246;2023-02-18T15:35:46;2.75;;;0.55;;
4096;SDS011;2062;50.694;7.246;2023-02-18T15:38:15;3.33;;;0.60;;
4096;SDS011;2062;50.694;7.246;2023-02-18T15:40:44;2.17;;;0.40;;
4096;SDS011;2062;50.694;7.246;2023-02-18T15:43:15;2.17;;;0.40;;
4096;SDS011;2062;50.694;7.246;2023-02-18T15:45:45;2.05;;;0.30;;
4096;SDS011;2062;50.694;7.246;2023-02-18T15:48:19;2.80;;;0.60;;
4096;SDS011;2062;50.694;7.246;2023-02-18T15:50:53;2.53;;;0.40;;
4096;SDS011;2062;50.694;7.246;2023-02-18T15:53:22;2.53;;;0.50;;
4096;SDS011;2062;50.694;7.246;2023-02-18T15:55:51;1.90;;;0.33;;
4096;SDS011;2062;50.694;7.246;2023-02-18T15:58:21;2.25;;;0.40;;
4096;SDS011;2062;50.694;7.246;2023-02-18T16:00:50;2.20;;;0.40;;
4096;SDS011;2062;50.694;7.246;2023-02-18T16:03:19;2.90;;;0.63;;
4096;SDS011;2062;50.694;7.246;2023-02-18T16:05:47;2.50;;;0.40;;
4096;SDS011;2062;50.694;7.246;2023-02-18T16:08:15;1.97;;;0.40;;
4096;SDS011;2062;50.694;7.246;2023-02-18T16:10:51;2.13;;;0.40;;